Time;durP1;ratioP1;P1;durP2;ratioP2;P2;SDS_P1;SDS_P2;PMS_P1;PMS_P2;Temp;Humidity;BMP_temperature;BMP_pressure;BME280_temperature;BME280_humidity;BME280_pressure;Samples;Min_cycle;Max_cycle;Signal;HPM_P1;HPM_P2
2023/09/27 00:00:31;;;;;;;9.57;5.10;;;15.50;99.90;;;;;;4870957;29;20092;-69
2023/09/27 00:02:59;;;;;;;7.97;3.63;;;15.50;99.90;;;;;;4876756;29;20108;-69
2023/09/27 00:05:25;;;;;;;4.88;2.53;;;15.50;99.90;;;;;;4875458;29;20032;-69
2023/09/27 00:07:51;;;;;;;4.95;3.15;;;15.30;99.90;;;;;;4876844;29;20459;-69
2023/09/27 00:10:18;;;;;;;5.63;2.90;;;15.00;99.90;;;;;;4870978;29;20038;-69
2023/09/27 00:12:45;;;;;;;4.43;2.50;;;14.90;99.90;;;;;;4876600;29;20084;-69
2023/09/27 00:15:12;;;;;;;4.97;3.13;;;14.90;99.90;;;;;;4854333;29;20364;-69
2023/09/27 00:17:40;;;;;;;8.15;3.28;;;15.00;99.90;;;;;;4876937;29;20490;-69
2023/09/27 00:20:12;;;;;;;8.02;3.97;;;15.00;99.90;;;;;;4873724;29;20041;-69
2023/09/27 00:22:39;;;;;;;7.65;3.50;;;15.20;99.90;;;;;;4876643;29;20029;-69
2023/09/27 00:25:08;;;;;;;6.03;3.55;;;15.20;99.90;;;;;;4873232;29;20525;-69
2023/09/27 00:27:35;;;;;;;6.38;3.42;;;15.30;99.90;;;;;;4876535;29;20041;-69
2023/09/27 00:30:02;;;;;;;6.13;3.08;;;15.30;99.90;;;;;;4873336;29;20030;-69
2023/09/27 00:32:28;;;;;;;6.32;2.20;;;15.30;99.90;;;;;;4877832;29;20029;-69
2023/09/27 00:34:54;;;;;;;6.05;2.67;;;15.00;99.90;;;;;;4872647;29;20022;-69
2023/09/27 00:37:20;;;;;;;4.20;2.88;;;14.70;99.90;;;;;;4876929;29;20407;-69
2023/09/27 00:39:46;;;;;;;4.35;2.33;;;14.90;99.90;;;;;;4876143;29;20033;-69
2023/09/27 00:42:12;;;;;;;9.57;2.97;;;14.90;99.90;;;;;;4892051;29;20044;-68
2023/09/27 00:44:39;;;;;;;5.15;3.20;;;14.90;99.90;;;;;;4872394;29;20085;-69
2023/09/27 00:47:06;;;;;;;9.88;3.58;;;14.60;99.90;;;;;;4874859;29;20469;-68
2023/09/27 00:49:32;;;;;;;5.82;3.65;;;14.50;99.90;;;;;;4873226;29;20030;-68
2023/09/27 00:51:59;;;;;;;8.07;3.63;;;14.60;99.90;;;;;;4886361;29;20491;-69
2023/09/27 00:54:26;;;;;;;10.45;3.80;;;14.60;99.90;;;;;;4887090;29;20065;-69
2023/09/27 00:56:52;;;;;;;7.38;3.70;;;14.70;99.90;;;;;;4887782;29;20044;-69
2023/09/27 00:59:19;;;;;;;4.30;2.58;;;14.60;99.90;;;;;;4860923;29;20040;-69
2023/09/27 01:01:46;;;;;;;5.35;3.00;;;14.50;99.90;;;;;;4875842;29;20068;-69
2023/09/27 01:04:15;;;;;;;6.35;3.30;;;14.60;99.90;;;;;;4874339;29;20044;-70
2023/09/27 01:06:41;;;;;;;10.93;3.65;;;14.70;99.90;;;;;;4876107;29;20501;-69
2023/09/27 01:09:07;;;;;;;7.68;3.50;;;14.70;99.90;;;;;;4861565;29;20033;-69
2023/09/27 01:11:33;;;;;;;7.65;3.97;;;14.70;99.90;;;;;;4887446;29;20473;-70
2023/09/27 01:13:59;;;;;;;6.68;4.05;;;14.70;99.90;;;;;;4880439;29;20412;-69
2023/09/27 01:16:25;;;;;;;8.57;3.58;;;14.70;99.90;;;;;;4893759;29;20505;-69
2023/09/27 01:18:51;;;;;;;6.88;4.15;;;14.70;99.90;;;;;;4892007;29;20107;-69
2023/09/27 01:21:19;;;;;;;7.72;3.58;;;14.40;99.90;;;;;;4887586;29;20123;-69
2023/09/27 01:23:49;;;;;;;6.80;3.88;;;14.00;99.90;;;;;;4880395;29;20029;-69
2023/09/27 01:26:18;;;;;;;8.27;4.32;;;13.80;99.90;;;;;;4895312;29;20515;-70
2023/09/27 01:28:46;;;;;;;6.32;3.45;;;13.80;99.90;;;;;;4869606;29;20029;-69
2023/09/27 01:31:12;;;;;;;15.48;3.53;;;13.80;99.90;;;;;;4861660;29;20033;-69
2023/09/27 01:33:39;;;;;;;6.05;3.53;;;13.80;99.90;;;;;;4884800;29;20051;-70
2023/09/27 01:36:06;;;;;;;6.05;3.83;;;13.80;99.90;;;;;;4888485;29;20032;-70
2023/09/27 01:38:33;;;;;;;8.82;4.03;;;13.90;99.90;;;;;;4879367;29;20032;-69
2023/09/27 01:40:59;;;;;;;6.80;3.75;;;14.00;99.90;;;;;;4885545;29;20051;-69
2023/09/27 01:43:25;;;;;;;6.38;3.22;;;13.90;99.90;;;;;;4886663;29;20048;-69
2023/09/27 01:45:51;;;;;;;6.80;3.50;;;13.90;99.90;;;;;;4878869;29;20045;-70
2023/09/27 01:48:17;;;;;;;7.13;3.70;;;14.10;99.90;;;;;;4862121;29;20042;-69
2023/09/27 01:50:44;;;;;;;9.68;4.53;;;14.00;99.90;;;;;;4879049;29;20127;-69
2023/09/27 01:53:10;;;;;;;9.18;3.53;;;13.70;99.90;;;;;;4886567;29;20509;-70
2023/09/27 01:55:36;;;;;;;11.23;4.38;;;13.60;99.90;;;;;;4878371;29;20060;-69
2023/09/27 01:58:03;;;;;;;6.28;3.35;;;13.50;99.90;;;;;;4880173;29;20047;-69
2023/09/27 02:00:29;;;;;;;9.38;4.40;;;13.50;99.90;;;;;;4875335;29;20040;-69
2023/09/27 02:02:56;;;;;;;8.63;3.88;;;13.50;99.90;;;;;;4860243;29;20112;-70
2023/09/27 02:05:23;;;;;;;5.95;3.55;;;13.60;99.90;;;;;;4892045;29;20041;-69
2023/09/27 02:07:49;;;;;;;7.75;3.95;;;13.70;99.90;;;;;;4880005;29;20357;-69
2023/09/27 02:10:15;;;;;;;7.10;3.80;;;13.60;99.90;;;;;;4877647;29;20064;-69
2023/09/27 02:12:41;;;;;;;7.10;3.72;;;13.70;99.90;;;;;;4878514;29;20057;-69
2023/09/27 02:15:09;;;;;;;6.03;3.45;;;13.60;99.90;;;;;;4883273;29;20127;-70
2023/09/27 02:17:36;;;;;;;9.15;4.30;;;13.40;99.90;;;;;;4874155;29;20063;-69
2023/09/27 02:20:07;;;;;;;10.05;3.83;;;13.00;99.90;;;;;;4890472;29;20082;-69
2023/09/27 02:22:37;;;;;;;13.45;3.83;;;13.00;99.90;;;;;;4876257;29;20068;-69
2023/09/27 02:25:11;;;;;;;10.20;4.68;;;13.00;99.90;;;;;;4884224;29;20117;-69
2023/09/27 02:27:38;;;;;;;6.15;4.25;;;13.10;99.90;;;;;;4876096;29;20064;-69
2023/09/27 02:30:11;;;;;;;5.53;3.40;;;13.30;99.90;;;;;;4884071;29;20029;-68
2023/09/27 02:32:38;;;;;;;7.72;4.68;;;13.50;99.90;;;;;;4860661;29;20487;-68
2023/09/27 02:35:04;;;;;;;7.95;4.13;;;13.60;99.90;;;;;;4887082;29;20558;-68
2023/09/27 02:37:31;;;;;;;9.68;4.13;;;13.60;99.90;;;;;;4878449;29;20029;-68
2023/09/27 02:39:58;;;;;;;11.38;4.82;;;13.60;99.90;;;;;;4878369;29;20084;-69
2023/09/27 02:42:25;;;;;;;7.60;4.30;;;13.60;99.90;;;;;;4879111;29;20033;-70
2023/09/27 02:44:50;;;;;;;8.25;4.57;;;13.50;99.90;;;;;;4872893;29;20512;-69
2023/09/27 02:47:16;;;;;;;6.53;3.75;;;13.30;99.90;;;;;;4886817;29;20111;-69
2023/09/27 02:49:42;;;;;;;9.55;5.10;;;13.30;99.90;;;;;;4872820;29;20482;-69
2023/09/27 02:52:08;;;;;;;5.70;3.78;;;13.40;99.90;;;;;;4879017;29;20446;-69
2023/09/27 02:54:33;;;;;;;6.95;4.38;;;13.60;99.90;;;;;;4865885;29;20033;-69
2023/09/27 02:56:59;;;;;;;9.02;4.53;;;13.70;99.90;;;;;;4859257;29;20046;-69
2023/09/27 02:59:27;;;;;;;9.48;4.60;;;13.80;99.90;;;;;;4863356;29;20039;-69
2023/09/27 03:01:53;;;;;;;8.32;4.65;;;13.80;99.90;;;;;;4877683;29;20072;-69
2023/09/27 03:04:19;;;;;;;10.25;5.53;;;13.80;99.90;;;;;;4878082;29;20794;-69
2023/09/27 03:06:45;;;;;;;8.98;4.35;;;13.90;99.90;;;;;;4875263;29;20044;-69
2023/09/27 03:09:12;;;;;;;8.57;3.85;;;13.80;99.90;;;;;;4892323;29;20389;-69
2023/09/27 03:11:40;;;;;;;11.98;4.70;;;13.60;99.90;;;;;;4877640;29;20089;-69
2023/09/27 03:14:06;;;;;;;7.47;3.70;;;13.50;99.90;;;;;;4857083;29;20456;-69
2023/09/27 03:16:32;;;;;;;9.30;4.35;;;13.40;99.90;;;;;;4893606;29;20033;-69
2023/09/27 03:18:59;;;;;;;7.18;3.78;;;13.50;99.90;;;;;;4876324;29;20033;-69
2023/09/27 03:21:26;;;;;;;8.38;4.55;;;13.40;99.90;;;;;;4885998;29;20033;-69
2023/09/27 03:23:54;;;;;;;6.93;3.88;;;13.20;99.90;;;;;;4875620;29;20040;-69
2023/09/27 03:26:23;;;;;;;9.00;4.80;;;13.20;99.90;;;;;;4884837;29;20040;-69
2023/09/27 03:28:50;;;;;;;10.50;4.93;;;13.40;99.90;;;;;;4876878;29;20037;-69
2023/09/27 03:31:16;;;;;;;9.52;4.95;;;13.50;99.90;;;;;;4877006;29;20036;-69
2023/09/27 03:33:41;;;;;;;7.88;4.38;;;13.60;99.90;;;;;;4881090;29;20024;-69
2023/09/27 03:36:07;;;;;;;11.32;4.75;;;13.50;99.90;;;;;;4887215;29;20031;-69
2023/09/27 03:38:33;;;;;;;8.82;5.10;;;13.50;99.90;;;;;;4875958;29;20033;-69
2023/09/27 03:40:59;;;;;;;10.00;5.45;;;13.60;99.90;;;;;;4876703;29;20040;-68
2023/09/27 03:43:25;;;;;;;10.23;5.30;;;13.60;99.90;;;;;;4883152;29;20045;-68
2023/09/27 03:45:52;;;;;;;12.05;5.88;;;13.70;99.90;;;;;;4876896;29;20126;-68
2023/09/27 03:48:19;;;;;;;11.15;5.18;;;13.80;99.90;;;;;;4875648;29;20038;-69
2023/09/27 03:50:45;;;;;;;9.20;4.55;;;13.80;99.90;;;;;;4883083;29;20036;-69
2023/09/27 03:53:11;;;;;;;15.43;5.00;;;13.70;99.90;;;;;;4878009;29;20029;-69
2023/09/27 03:55:37;;;;;;;9.60;5.97;;;13.60;99.90;;;;;;4858346;29;20475;-69
2023/09/27 03:58:03;;;;;;;7.80;4.32;;;13.60;99.90;;;;;;4872785;29;20443;-70
2023/09/27 04:00:29;;;;;;;13.73;4.55;;;13.60;99.90;;;;;;4885610;29;20029;-69
2023/09/27 04:02:55;;;;;;;9.40;4.53;;;13.60;99.90;;;;;;4866430;29;20736;-70
2023/09/27 04:05:26;;;;;;;10.00;4.72;;;13.60;99.90;;;;;;4898438;29;20037;-69
2023/09/27 04:07:52;;;;;;;13.90;5.78;;;13.60;99.90;;;;;;4884871;29;20040;-69
2023/09/27 04:10:19;;;;;;;9.55;4.97;;;13.60;99.90;;;;;;4876214;29;20039;-71
2023/09/27 04:12:45;;;;;;;10.93;4.80;;;13.60;99.90;;;;;;4876589;29;20081;-69
2023/09/27 04:15:12;;;;;;;8.43;4.70;;;13.60;99.90;;;;;;4879367;29;20032;-68
2023/09/27 04:17:38;;;;;;;16.95;6.57;;;13.70;99.90;;;;;;4876879;29;20020;-70
2023/09/27 04:20:25;;;;;;;11.70;6.53;;;13.40;99.90;;;;;;4876963;29;20508;-70
2023/09/27 04:22:51;;;;;;;9.80;5.63;;;13.30;99.90;;;;;;4876589;29;20039;-70
2023/09/27 04:25:18;;;;;;;8.05;3.72;;;13.40;99.90;;;;;;4882235;29;20045;-70
2023/09/27 04:27:49;;;;;;;15.38;5.35;;;13.30;99.90;;;;;;4876393;29;20097;-69
2023/09/27 04:30:18;;;;;;;15.68;5.22;;;13.30;99.90;;;;;;4875320;29;20094;-69
2023/09/27 04:32:50;;;;;;;11.82;4.90;;;13.10;99.90;;;;;;4876377;29;20131;-69
2023/09/27 04:35:16;;;;;;;12.88;6.20;;;12.90;99.90;;;;;;4876137;29;22269;-69
2023/09/27 04:37:42;;;;;;;14.32;7.18;;;13.00;99.90;;;;;;4890050;29;20093;-69
2023/09/27 04:40:11;;;;;;;9.90;5.15;;;13.00;99.90;;;;;;4875079;29;20033;-70
2023/09/27 04:42:41;;;;;;;7.20;4.75;;;13.00;99.90;;;;;;4885650;29;20116;-69
2023/09/27 04:45:10;;;;;;;10.30;4.87;;;13.00;99.90;;;;;;4884734;29;20083;-70
2023/09/27 04:47:36;;;;;;;14.57;5.93;;;13.00;99.90;;;;;;4861954;29;20105;-69
2023/09/27 04:50:02;;;;;;;10.00;5.32;;;12.80;99.90;;;;;;4884314;29;20036;-69
2023/09/27 04:52:27;;;;;;;11.25;5.68;;;12.90;99.90;;;;;;4880671;29;20481;-70
2023/09/27 04:54:57;;;;;;;10.90;4.65;;;13.00;99.90;;;;;;4881124;29;20021;-70
2023/09/27 04:57:24;;;;;;;13.00;5.53;;;13.00;99.90;;;;;;4888309;29;20489;-70
2023/09/27 04:59:53;;;;;;;10.52;5.88;;;13.20;99.90;;;;;;4879822;29;20058;-69
2023/09/27 05:02:20;;;;;;;8.90;5.07;;;13.10;99.90;;;;;;4880235;29;20036;-69
2023/09/27 05:04:47;;;;;;;14.25;5.88;;;13.10;99.90;;;;;;4879373;29;20029;-69
2023/09/27 05:07:15;;;;;;;8.75;5.25;;;13.20;99.90;;;;;;4879827;29;20040;-68
2023/09/27 05:09:41;;;;;;;21.38;8.05;;;13.10;99.90;;;;;;4882811;29;20036;-69
2023/09/27 05:12:07;;;;;;;12.00;5.22;;;13.00;99.90;;;;;;4879550;29;20036;-69
2023/09/27 05:14:32;;;;;;;11.27;6.15;;;12.80;99.90;;;;;;4878851;29;20470;-75
2023/09/27 05:16:58;;;;;;;11.27;5.30;;;12.80;99.90;;;;;;4878570;29;20057;-72
2023/09/27 05:19:24;;;;;;;16.63;7.45;;;12.80;99.90;;;;;;4879377;29;20797;-68
2023/09/27 05:21:49;;;;;;;14.57;5.72;;;12.90;99.90;;;;;;4879263;29;20040;-70
2023/09/27 05:24:15;;;;;;;10.25;5.72;;;12.90;99.90;;;;;;4878560;29;20124;-69
2023/09/27 05:26:41;;;;;;;11.98;5.40;;;12.90;99.90;;;;;;4872885;29;20064;-70
2023/09/27 05:29:13;;;;;;;13.27;7.03;;;13.00;99.90;;;;;;4873753;29;20107;-70
2023/09/27 05:31:40;;;;;;;11.27;5.03;;;13.00;99.90;;;;;;4879339;29;20033;-69
2023/09/27 05:34:07;;;;;;;10.48;4.60;;;13.00;99.90;;;;;;4876913;29;20478;-69
2023/09/27 05:36:34;;;;;;;15.05;5.53;;;13.00;99.90;;;;;;4880556;29;20495;-69
2023/09/27 05:39:05;;;;;;;8.32;5.03;;;13.00;99.90;;;;;;4880180;29;20402;-70
2023/09/27 05:41:31;;;;;;;8.18;4.38;;;12.90;99.90;;;;;;4878096;29;20037;-69
2023/09/27 05:43:57;;;;;;;12.38;5.72;;;13.00;99.90;;;;;;4876748;29;20049;-69
2023/09/27 05:46:23;;;;;;;13.25;6.85;;;13.10;99.90;;;;;;4878579;29;20033;-69
2023/09/27 05:48:49;;;;;;;11.00;5.53;;;13.10;99.90;;;;;;4869405;29;20048;-69
2023/09/27 05:51:15;;;;;;;8.70;5.25;;;13.00;99.90;;;;;;4877304;29;20040;-69
2023/09/27 05:53:41;;;;;;;14.10;6.03;;;13.10;99.90;;;;;;4874969;29;20041;-69
2023/09/27 05:56:07;;;;;;;13.05;5.75;;;13.10;99.90;;;;;;4873788;29;20033;-69
2023/09/27 05:58:37;;;;;;;15.38;5.70;;;13.10;99.90;;;;;;4873992;29;20135;-69
2023/09/27 06:01:05;;;;;;;11.23;5.53;;;13.20;99.90;;;;;;4890254;29;20060;-69
2023/09/27 06:03:41;;;;;;;13.13;5.60;;;13.20;99.90;;;;;;4890669;29;20033;-69
2023/09/27 06:06:07;;;;;;;12.60;6.63;;;13.00;99.90;;;;;;4889945;29;20044;-69
2023/09/27 06:08:33;;;;;;;12.90;6.53;;;13.10;99.90;;;;;;4876297;29;20140;-70
2023/09/27 06:10:59;;;;;;;14.07;6.75;;;13.10;99.90;;;;;;4889697;29;20021;-70
2023/09/27 06:13:26;;;;;;;12.27;6.07;;;13.20;99.90;;;;;;4877035;29;20505;-69
2023/09/27 06:15:54;;;;;;;12.57;5.57;;;13.20;99.90;;;;;;4874706;29;20028;-69
2023/09/27 06:18:20;;;;;;;12.50;5.90;;;13.20;99.90;;;;;;4879420;29;20029;-69
2023/09/27 06:20:47;;;;;;;18.73;6.18;;;13.30;99.90;;;;;;4874476;29;20035;-75
2023/09/27 06:23:14;;;;;;;22.90;8.50;;;13.20;99.90;;;;;;4877644;29;20363;-72
2023/09/27 06:25:43;;;;;;;10.95;6.00;;;13.50;99.90;;;;;;4873206;29;20140;-70
2023/09/27 06:28:16;;;;;;;14.50;7.45;;;13.50;99.90;;;;;;4877824;29;20041;-70
2023/09/27 06:30:42;;;;;;;23.50;6.15;;;13.50;99.90;;;;;;4873567;29;20057;-71
2023/09/27 06:33:09;;;;;;;12.27;6.90;;;13.50;99.90;;;;;;4878229;29;20381;-71
2023/09/27 06:35:38;;;;;;;11.68;6.65;;;13.40;99.90;;;;;;4872286;29;20029;-70
2023/09/27 06:38:05;;;;;;;19.05;5.72;;;13.30;99.90;;;;;;4878194;29;20124;-69
2023/09/27 06:40:32;;;;;;;9.90;6.13;;;13.40;99.90;;;;;;4876203;29;20087;-71
2023/09/27 06:42:57;;;;;;;12.95;7.55;;;13.40;99.90;;;;;;4879088;29;20112;-71
2023/09/27 06:45:23;;;;;;;14.40;6.97;;;13.50;99.90;;;;;;4875547;29;20439;-71
2023/09/27 06:47:49;;;;;;;16.90;7.22;;;13.40;99.90;;;;;;4876704;29;20044;-70
2023/09/27 06:50:19;;;;;;;16.42;6.38;;;13.40;99.90;;;;;;4891188;29;20040;-70
2023/09/27 06:52:46;;;;;;;13.40;6.95;;;13.60;99.90;;;;;;4878017;29;20199;-71
2023/09/27 06:55:16;;;;;;;11.55;6.80;;;13.80;99.90;;;;;;4871141;29;20040;-70
2023/09/27 06:57:52;;;;;;;13.48;7.00;;;13.80;99.90;;;;;;4878121;29;20431;-69
2023/09/27 07:00:19;;;;;;;11.98;6.63;;;13.90;99.90;;;;;;4871981;29;20093;-69
2023/09/27 07:02:48;;;;;;;14.43;7.28;;;13.90;99.90;;;;;;4878104;29;20029;-69
2023/09/27 07:05:15;;;;;;;13.98;8.15;;;13.90;99.90;;;;;;4877207;29;20482;-69
2023/09/27 07:07:41;;;;;;;14.32;7.05;;;13.90;99.90;;;;;;4859943;29;20093;-68
2023/09/27 07:10:09;;;;;;;16.95;8.20;;;14.00;99.90;;;;;;4870404;29;20033;-68
2023/09/27 07:12:36;;;;;;;13.02;6.50;;;14.10;99.90;;;;;;4876361;29;20138;-69
2023/09/27 07:15:09;;;;;;;13.15;7.35;;;14.20;99.90;;;;;;4875752;29;20037;-69
2023/09/27 07:17:39;;;;;;;22.17;7.07;;;14.20;99.90;;;;;;4876154;29;20132;-69
2023/09/27 07:20:27;;;;;;;17.02;6.75;;;14.40;99.90;;;;;;4870403;29;20043;-69
2023/09/27 07:22:57;;;;;;;14.98;7.50;;;14.50;99.90;;;;;;4877010;29;20025;-68
2023/09/27 07:25:23;;;;;;;18.48;8.35;;;14.60;99.90;;;;;;4853352;29;20029;-68
2023/09/27 07:27:52;;;;;;;24.20;9.70;;;14.70;99.90;;;;;;4878284;29;20061;-68
2023/09/27 07:30:23;;;;;;;22.83;11.15;;;14.80;99.90;;;;;;4870977;29;20037;-68
2023/09/27 07:32:50;;;;;;;20.88;10.05;;;14.80;99.90;;;;;;4878501;29;20118;-68
2023/09/27 07:35:17;;;;;;;21.67;10.10;;;14.90;99.90;;;;;;4870899;29;20097;-69
2023/09/27 07:37:44;;;;;;;14.85;8.68;;;14.80;99.90;;;;;;4878151;29;20183;-68
2023/09/27 07:40:12;;;;;;;16.80;7.82;;;14.90;99.90;;;;;;4868844;29;20041;-68
2023/09/27 07:42:44;;;;;;;16.25;7.95;;;14.90;99.90;;;;;;4876934;29;20108;-68
2023/09/27 07:45:31;;;;;;;18.27;6.95;;;15.00;99.90;;;;;;4870574;29;20069;-68
2023/09/27 07:47:57;;;;;;;15.35;7.50;;;15.10;99.90;;;;;;4878014;29;20029;-68
2023/09/27 07:50:28;;;;;;;13.00;7.65;;;15.20;99.90;;;;;;4876030;29;20093;-68
2023/09/27 07:52:55;;;;;;;12.32;6.72;;;15.40;99.90;;;;;;4876465;29;20027;-68
2023/09/27 07:55:21;;;;;;;15.27;6.78;;;15.30;99.90;;;;;;4875528;29;20037;-68
2023/09/27 07:57:49;;;;;;;12.70;6.47;;;15.50;99.90;;;;;;4877517;29;20028;-68
2023/09/27 08:00:16;;;;;;;11.32;5.95;;;15.70;99.90;;;;;;4875953;29;20040;-68
2023/09/27 08:02:46;;;;;;;12.65;6.25;;;15.80;99.90;;;;;;4877573;29;20100;-68
2023/09/27 08:05:14;;;;;;;10.18;4.97;;;15.80;99.90;;;;;;4868322;29;20033;-68
2023/09/27 08:07:40;;;;;;;11.68;5.35;;;15.80;99.90;;;;;;4885182;29;20506;-68
2023/09/27 08:10:07;;;;;;;8.63;5.00;;;15.90;99.90;;;;;;4883990;29;20089;-68
2023/09/27 08:12:34;;;;;;;15.88;5.22;;;15.90;99.90;;;;;;4869812;29;20080;-68
2023/09/27 08:15:03;;;;;;;11.52;5.22;;;16.10;99.90;;;;;;4875482;29;20044;-68
2023/09/27 08:17:30;;;;;;;13.50;5.97;;;16.20;99.90;;;;;;4875844;29;20044;-68
2023/09/27 08:19:56;;;;;;;17.33;5.72;;;16.30;99.90;;;;;;4849375;29;20441;-68
2023/09/27 08:22:22;;;;;;;15.35;7.40;;;16.30;99.90;;;;;;4875856;29;20397;-68
2023/09/27 08:24:47;;;;;;;10.70;5.28;;;16.30;99.90;;;;;;4868474;29;20033;-68
2023/09/27 08:27:13;;;;;;;12.65;5.53;;;16.50;99.90;;;;;;4884872;29;20041;-68
2023/09/27 08:29:39;;;;;;;9.95;4.85;;;16.50;99.90;;;;;;4869565;29;20059;-68
2023/09/27 08:32:06;;;;;;;20.67;5.88;;;16.50;99.90;;;;;;4860418;29;20494;-69
2023/09/27 08:34:33;;;;;;;13.40;6.50;;;16.70;99.90;;;;;;4873457;29;20414;-69
2023/09/27 08:36:59;;;;;;;17.00;6.95;;;16.80;99.90;;;;;;4876590;29;20033;-68
2023/09/27 08:39:27;;;;;;;13.55;6.32;;;16.80;99.90;;;;;;4874536;29;20068;-67
2023/09/27 08:41:56;;;;;;;22.60;6.13;;;16.90;99.90;;;;;;4876994;29;20029;-67
2023/09/27 08:44:23;;;;;;;10.82;6.18;;;17.10;99.90;;;;;;4874848;29;20041;-69
2023/09/27 08:46:50;;;;;;;10.50;5.18;;;17.10;99.90;;;;;;4875718;29;20025;-68
2023/09/27 08:49:18;;;;;;;11.55;5.53;;;17.30;99.90;;;;;;4875414;29;20609;-68
2023/09/27 08:51:46;;;;;;;9.68;4.88;;;17.40;99.90;;;;;;4877392;29;20033;-68
2023/09/27 08:54:16;;;;;;;10.15;5.70;;;17.50;99.90;;;;;;4868277;29;20382;-69
2023/09/27 08:56:47;;;;;;;10.80;5.10;;;17.60;99.90;;;;;;4876805;29;20497;-69
2023/09/27 08:59:13;;;;;;;12.75;5.47;;;17.80;99.90;;;;;;4872329;29;20037;-69
2023/09/27 09:01:42;;;;;;;12.05;5.10;;;17.70;99.90;;;;;;4877029;29;20052;-69
2023/09/27 09:04:09;;;;;;;11.15;4.95;;;17.80;99.90;;;;;;4874752;29;20439;-69
2023/09/27 09:06:35;;;;;;;11.55;5.57;;;17.90;99.90;;;;;;4876921;29;20116;-68
2023/09/27 09:09:10;;;;;;;25.10;5.68;;;17.90;99.90;;;;;;4853703;29;20077;-68
2023/09/27 09:11:49;;;;;;;10.50;5.57;;;18.00;99.90;;;;;;4883582;29;20032;-68
2023/09/27 09:14:19;;;;;;;10.57;4.32;;;18.10;99.90;;;;;;4871543;29;20547;-69
2023/09/27 09:16:53;;;;;;;9.75;5.05;;;18.20;99.90;;;;;;4875472;29;20025;-68
2023/09/27 09:19:24;;;;;;;8.02;3.92;;;18.30;99.90;;;;;;4875144;29;20065;-68
2023/09/27 09:22:08;;;;;;;9.32;3.58;;;18.50;99.90;;;;;;4875615;29;20047;-68
2023/09/27 09:24:43;;;;;;;7.88;4.55;;;18.60;99.90;;;;;;4864549;29;20056;-68
2023/09/27 09:27:16;;;;;;;9.73;4.53;;;18.80;99.90;;;;;;4873548;29;20128;-68
2023/09/27 09:29:50;;;;;;;7.75;4.50;;;18.90;99.90;;;;;;4874659;29;20445;-68
2023/09/27 09:32:25;;;;;;;10.13;3.40;;;18.90;99.90;;;;;;4878715;29;20391;-68
2023/09/27 09:34:53;;;;;;;6.50;3.63;;;19.10;99.90;;;;;;4877680;29;20029;-68
2023/09/27 09:37:29;;;;;;;7.03;3.65;;;19.30;99.90;;;;;;4887192;29;20032;-68
2023/09/27 09:40:15;;;;;;;10.15;4.78;;;19.50;99.90;;;;;;4878366;29;20510;-68
2023/09/27 09:42:42;;;;;;;6.00;3.60;;;19.70;99.90;;;;;;4873499;29;20482;-68
2023/09/27 09:45:12;;;;;;;6.20;4.18;;;19.80;99.90;;;;;;4871684;29;20039;-69
2023/09/27 09:47:41;;;;;;;6.88;3.78;;;19.90;99.90;;;;;;4878206;29;20056;-67
2023/09/27 09:50:16;;;;;;;8.93;4.47;;;20.10;99.90;;;;;;4879968;29;20033;-68
2023/09/27 09:52:57;;;;;;;6.15;3.35;;;20.30;99.90;;;;;;4869237;29;20111;-68
2023/09/27 09:55:25;;;;;;;7.78;3.72;;;20.50;99.90;;;;;;4880009;29;20024;-68
2023/09/27 09:58:24;;;;;;;8.13;4.30;;;20.70;99.90;;;;;;4885150;29;20040;-68
2023/09/27 10:00:53;;;;;;;7.97;3.42;;;20.90;99.90;;;;;;4882664;29;20089;-72
2023/09/27 10:03:22;;;;;;;9.45;4.00;;;21.00;99.90;;;;;;4877838;29;20052;-68
2023/09/27 10:05:53;;;;;;;5.85;3.08;;;21.00;99.90;;;;;;4871214;29;20431;-67
2023/09/27 10:08:19;;;;;;;;;;;20.90;99.90;;;;;;4878336;29;20093;-68
2023/09/27 10:10:46;;;;;;;7.15;3.55;;;21.30;99.90;;;;;;4874564;29;20018;-68
2023/09/27 10:13:13;;;;;;;6.82;3.25;;;21.40;99.90;;;;;;4891287;29;20036;-69
2023/09/27 10:15:40;;;;;;;5.45;3.17;;;21.70;99.90;;;;;;4876678;29;20040;-69
2023/09/27 10:18:21;;;;;;;8.13;3.95;;;21.80;99.90;;;;;;4878110;29;20057;-69
2023/09/27 10:21:03;;;;;;;;;;;21.70;99.90;;;;;;4879885;29;20513;-69
2023/09/27 10:23:47;;;;;;;;;;;21.90;99.90;;;;;;4877147;29;20369;-69
2023/09/27 10:26:36;;;;;;;;;;;22.20;99.90;;;;;;4876409;29;19915;-69
2023/09/27 10:29:06;;;;;;;;;;;22.20;99.90;;;;;;4873532;29;20441;-69
2023/09/27 10:31:33;;;;;;;;;;;22.50;99.90;;;;;;4879790;29;19915;-69
2023/09/27 10:33:59;;;;;;;;;;;22.70;99.90;;;;;;4875376;29;19943;-70
2023/09/27 10:36:24;;;;;;;;;;;22.80;99.90;;;;;;4878653;29;19974;-69
2023/09/27 10:38:50;;;;;;;;;;;23.00;99.90;;;;;;4871494;29;19963;-68
2023/09/27 10:41:34;;;;;;;;;;;23.30;99.90;;;;;;4873967;29;20010;-69
2023/09/27 10:44:01;;;;;;;;;;;23.20;99.90;;;;;;4877525;29;19919;-70
2023/09/27 10:46:40;;;;;;;;;;;23.30;99.90;;;;;;4862952;29;20312;-69
2023/09/27 10:49:05;;;;;;;;;;;23.90;99.90;;;;;;4877377;29;19919;-69
2023/09/27 10:51:31;;;;;;;;;;;23.60;99.90;;;;;;4879297;29;20392;-70
2023/09/27 10:53:57;;;;;;;;;;;24.00;99.90;;;;;;4860715;29;19915;-68
2023/09/27 10:56:22;;;;;;;;;;;24.10;99.90;;;;;;4879276;29;19919;-70
2023/09/27 10:58:52;;;;;;;;;;;24.10;99.90;;;;;;4878018;29;19955;-68
2023/09/27 11:01:22;;;;;;;;;;;24.50;99.90;;;;;;4879071;29;19911;-69
2023/09/27 11:03:56;;;;;;;;;;;24.70;99.90;;;;;;4877401;29;19924;-69
2023/09/27 11:06:22;;;;;;;;;;;24.40;99.90;;;;;;4878976;29;19919;-68
2023/09/27 11:08:48;;;;;;;;;;;24.30;99.90;;;;;;4877003;29;19927;-70
2023/09/27 11:11:14;;;;;;;;;;;24.90;99.90;;;;;;4871106;29;20007;-70
2023/09/27 11:13:45;;;;;;;;;;;24.80;99.90;;;;;;4878513;29;19922;-68
2023/09/27 11:16:15;;;;;;;;;;;24.80;99.90;;;;;;4870755;29;19915;-68
2023/09/27 11:18:51;;;;;;;;;;;24.90;99.90;;;;;;4871346;29;20010;-69
2023/09/27 11:21:18;;;;;;;;;;;25.30;99.90;;;;;;4874059;29;19916;-70
2023/09/27 11:23:54;;;;;;;;;;;25.50;99.90;;;;;;4877187;29;19939;-68
2023/09/27 11:26:20;;;;;;;;;;;25.20;99.50;;;;;;4859542;29;19996;-69
2023/09/27 11:28:58;;;;;;;;;;;25.60;99.90;;;;;;4877450;29;19916;-70
2023/09/27 11:31:25;;;;;;;;;;;26.00;98.40;;;;;;4878520;29;19963;-69
2023/09/27 11:33:51;;;;;;;;;;;25.50;99.40;;;;;;4878036;29;19923;-69
2023/09/27 11:36:16;;;;;;;;;;;26.10;98.80;;;;;;4876857;29;19916;-69
2023/09/27 11:38:51;;;;;;;;;;;26.40;97.00;;;;;;4878756;29;19916;-69
2023/09/27 11:41:20;;;;;;;;;;;27.10;96.00;;;;;;4872631;29;20389;-70
2023/09/27 11:43:45;;;;;;;;;;;26.80;95.80;;;;;;4877913;29;20006;-69
2023/09/27 11:46:12;;;;;;;;;;;25.70;98.00;;;;;;4874025;29;20444;-69
2023/09/27 11:48:39;;;;;;;;;;;25.80;97.70;;;;;;4877357;29;19950;-68
2023/09/27 11:51:05;;;;;;;;;;;26.70;97.10;;;;;;4873581;29;19916;-69
2023/09/27 11:53:31;;;;;;;;;;;26.90;95.20;;;;;;4876833;29;20405;-69
2023/09/27 11:55:59;;;;;;;;;;;25.40;97.70;;;;;;4875011;29;20007;-69
2023/09/27 11:58:26;;;;;;;;;;;25.60;98.90;;;;;;4891248;29;19915;-69
2023/09/27 12:00:51;;;;;;;;;;;25.60;98.50;;;;;;4874388;29;20887;-69
2023/09/27 12:03:17;;;;;;;;;;;26.30;97.00;;;;;;4875901;29;19942;-69
2023/09/27 12:05:43;;;;;;;;;;;26.60;95.90;;;;;;4876300;29;19939;-69
2023/09/27 12:08:08;;;;;;;;;;;26.90;94.80;;;;;;4875114;29;20383;-69
2023/09/27 12:10:34;;;;;;;;;;;28.60;93.50;;;;;;4877704;29;19920;-69
2023/09/27 12:13:00;;;;;;;;;;;30.40;87.30;;;;;;4873707;29;19924;-69
2023/09/27 12:15:25;;;;;;;;;;;31.60;79.20;;;;;;4885670;29;20341;-70
2023/09/27 12:17:52;;;;;;;;;;;29.70;80.20;;;;;;4872614;29;19918;-70
2023/09/27 12:20:17;;;;;;;;;;;29.10;84.70;;;;;;4877940;29;20485;-70
2023/09/27 12:22:43;;;;;;;;;;;31.30;79.50;;;;;;4872729;29;19919;-70
2023/09/27 12:25:09;;;;;;;;;;;30.30;81.10;;;;;;4877800;29;19970;-70
2023/09/27 12:27:35;;;;;;;;;;;32.10;76.10;;;;;;4866373;29;20432;-70
2023/09/27 12:30:01;;;;;;;;;;;31.60;74.20;;;;;;4873460;29;19935;-70
2023/09/27 12:32:26;;;;;;;;;;;29.50;77.00;;;;;;4876738;29;20341;-70
2023/09/27 12:34:52;;;;;;;;;;;28.80;80.10;;;;;;4872060;29;19916;-70
2023/09/27 12:37:18;;;;;;;;;;;28.60;83.00;;;;;;4877660;29;20022;-70
2023/09/27 12:39:43;;;;;;;;;;;29.20;81.20;;;;;;4872376;29;19911;-69
2023/09/27 12:42:09;;;;;;;;;;;28.50;83.30;;;;;;4877945;29;19916;-69
2023/09/27 12:44:35;;;;;;;;;;;28.80;82.90;;;;;;4872015;29;19964;-70
2023/09/27 12:47:00;;;;;;;;;;;29.10;80.70;;;;;;4877796;29;19919;-70
2023/09/27 12:49:26;;;;;;;;;;;29.60;81.70;;;;;;4871376;29;19916;-69
2023/09/27 12:51:52;;;;;;;;;;;30.90;77.00;;;;;;4876738;29;20006;-69
2023/09/27 12:54:22;;;;;;;;;;;31.60;72.20;;;;;;4873327;29;20341;-70
2023/09/27 12:56:48;;;;;;;;;;;30.20;75.50;;;;;;4874491;29;19924;-69
2023/09/27 12:59:14;;;;;;;;;;;29.20;76.90;;;;;;4861135;29;20336;-69
2023/09/27 13:01:39;;;;;;;;;;;28.20;81.20;;;;;;4856802;29;19924;-69
2023/09/27 13:04:05;;;;;;;;;;;27.70;86.30;;;;;;4868558;29;20361;-70